sensor_id;sensor_type;location;lat;lon;timestamp;temperature;humidity
57892;DHT22;43708;48.828;9.166;2023-04-28T00:00:28;20.70;73.10
57892;DHT22;43708;48.828;9.166;2023-04-28T00:02:53;20.70;73.10
57892;DHT22;43708;48.828;9.166;2023-04-28T00:05:19;20.70;73.10
57892;DHT22;43708;48.828;9.166;2023-04-28T00:07:48;20.60;73.10
57892;DHT22;43708;48.828;9.166;2023-04-28T00:10:13;20.60;73.10
57892;DHT22;43708;48.828;9.166;2023-04-28T00:12:39;20.60;73.00
57892;DHT22;43708;48.828;9.166;2023-04-28T00:15:05;20.60;73.00
57892;DHT22;43708;48.828;9.166;2023-04-28T00:17:31;20.60;73.00
57892;DHT22;43708;48.828;9.166;2023-04-28T00:19:56;20.60;73.00
57892;DHT22;43708;48.828;9.166;2023-04-28T00:22:22;20.60;73.10
57892;DHT22;43708;48.828;9.166;2023-04-28T00:24:47;20.60;73.00
57892;DHT22;43708;48.828;9.166;2023-04-28T00:27:13;20.60;73.00
57892;DHT22;43708;48.828;9.166;2023-04-28T00:29:39;20.60;73.00
57892;DHT22;43708;48.828;9.166;2023-04-28T00:32:04;20.60;73.00
57892;DHT22;43708;48.828;9.166;2023-04-28T00:34:33;20.60;73.00
57892;DHT22;43708;48.828;9.166;2023-04-28T00:37:01;20.60;73.00
57892;DHT22;43708;48.828;9.166;2023-04-28T00:39:27;20.60;73.00
57892;DHT22;43708;48.828;9.166;2023-04-28T00:41:53;20.60;73.00
57892;DHT22;43708;48.828;9.166;2023-04-28T00:44:18;20.60;73.00
57892;DHT22;43708;48.828;9.166;2023-04-28T00:46:44;20.60;73.00
57892;DHT22;43708;48.828;9.166;2023-04-28T00:49:10;20.60;73.00
57892;DHT22;43708;48.828;9.166;2023-04-28T00:51:36;20.60;73.00
57892;DHT22;43708;48.828;9.166;2023-04-28T00:54:01;20.60;73.00
57892;DHT22;43708;48.828;9.166;2023-04-28T00:56:28;20.60;73.00
57892;DHT22;43708;48.828;9.166;2023-04-28T00:58:56;20.60;73.00
57892;DHT22;43708;48.828;9.166;2023-04-28T01:01:21;20.60;73.00
57892;DHT22;43708;48.828;9.166;2023-04-28T01:03:47;20.50;73.00
57892;DHT22;43708;48.828;9.166;2023-04-28T01:06:13;20.50;73.00
57892;DHT22;43708;48.828;9.166;2023-04-28T01:08:41;20.50;73.00
57892;DHT22;43708;48.828;9.166;2023-04-28T01:11:08;20.50;73.00
57892;DHT22;43708;48.828;9.166;2023-04-28T01:13:38;20.50;73.00
57892;DHT22;43708;48.828;9.166;2023-04-28T01:16:05;20.50;73.00
57892;DHT22;43708;48.828;9.166;2023-04-28T01:18:31;20.60;73.00
57892;DHT22;43708;48.828;9.166;2023-04-28T01:20:57;20.60;73.00
57892;DHT22;43708;48.828;9.166;2023-04-28T01:23:23;20.60;73.00
57892;DHT22;43708;48.828;9.166;2023-04-28T01:25:48;20.60;72.90
57892;DHT22;43708;48.828;9.166;2023-04-28T01:28:14;20.60;72.90
57892;DHT22;43708;48.828;9.166;2023-04-28T01:30:39;20.60;72.90
57892;DHT22;43708;48.828;9.166;2023-04-28T01:33:05;20.60;72.90
57892;DHT22;43708;48.828;9.166;2023-04-28T01:35:31;20.60;72.90
57892;DHT22;43708;48.828;9.166;2023-04-28T01:37:56;20.60;72.90
57892;DHT22;43708;48.828;9.166;2023-04-28T01:40:22;20.60;72.90
57892;DHT22;43708;48.828;9.166;2023-04-28T01:42:47;20.60;72.90
57892;DHT22;43708;48.828;9.166;2023-04-28T01:45:13;20.60;72.90
57892;DHT22;43708;48.828;9.166;2023-04-28T01:47:38;20.60;72.90
57892;DHT22;43708;48.828;9.166;2023-04-28T01:50:05;20.60;72.90
57892;DHT22;43708;48.828;9.166;2023-04-28T01:52:30;20.60;72.90
57892;DHT22;43708;48.828;9.166;2023-04-28T01:55:20;20.60;72.90
57892;DHT22;43708;48.828;9.166;2023-04-28T01:57:45;20.60;72.90
57892;DHT22;43708;48.828;9.166;2023-04-28T02:00:11;20.60;72.90
57892;DHT22;43708;48.828;9.166;2023-04-28T02:02:37;20.60;72.90
57892;DHT22;43708;48.828;9.166;2023-04-28T02:05:02;20.60;73.00
57892;DHT22;43708;48.828;9.166;2023-04-28T02:07:28;20.60;73.00
57892;DHT22;43708;48.828;9.166;2023-04-28T02:09:54;20.60;72.90
57892;DHT22;43708;48.828;9.166;2023-04-28T02:12:19;20.60;72.90
57892;DHT22;43708;48.828;9.166;2023-04-28T02:14:45;20.60;73.40
57892;DHT22;43708;48.828;9.166;2023-04-28T02:17:10;20.60;73.00
57892;DHT22;43708;48.828;9.166;2023-04-28T02:19:36;20.60;73.00
57892;DHT22;43708;48.828;9.166;2023-04-28T02:22:02;20.60;73.00
57892;DHT22;43708;48.828;9.166;2023-04-28T02:24:28;20.60;73.00
57892;DHT22;43708;48.828;9.166;2023-04-28T02:26:54;20.60;73.00
57892;DHT22;43708;48.828;9.166;2023-04-28T02:29:19;20.60;73.00
57892;DHT22;43708;48.828;9.166;2023-04-28T02:31:45;20.60;73.00
57892;DHT22;43708;48.828;9.166;2023-04-28T02:34:11;20.60;73.00
57892;DHT22;43708;48.828;9.166;2023-04-28T02:36:38;20.50;73.00
57892;DHT22;43708;48.828;9.166;2023-04-28T02:39:03;20.60;73.00
57892;DHT22;43708;48.828;9.166;2023-04-28T02:41:29;20.50;73.00
57892;DHT22;43708;48.828;9.166;2023-04-28T02:43:55;20.60;73.10
57892;DHT22;43708;48.828;9.166;2023-04-28T02:46:21;20.60;73.10
57892;DHT22;43708;48.828;9.166;2023-04-28T02:48:46;20.60;73.20
57892;DHT22;43708;48.828;9.166;2023-04-28T02:51:12;20.60;73.10
57892;DHT22;43708;48.828;9.166;2023-04-28T02:53:38;20.60;73.20
57892;DHT22;43708;48.828;9.166;2023-04-28T02:56:04;20.60;73.20
57892;DHT22;43708;48.828;9.166;2023-04-28T02:58:29;20.50;73.10
57892;DHT22;43708;48.828;9.166;2023-04-28T03:00:55;20.50;73.10
57892;DHT22;43708;48.828;9.166;2023-04-28T03:03:21;20.50;73.10
57892;DHT22;43708;48.828;9.166;2023-04-28T03:05:46;20.50;73.20
57892;DHT22;43708;48.828;9.166;2023-04-28T03:08:12;20.50;73.20
57892;DHT22;43708;48.828;9.166;2023-04-28T03:10:38;20.60;73.20
57892;DHT22;43708;48.828;9.166;2023-04-28T03:13:03;20.60;73.20
57892;DHT22;43708;48.828;9.166;2023-04-28T03:15:29;20.50;73.20
57892;DHT22;43708;48.828;9.166;2023-04-28T03:17:54;20.50;73.20
57892;DHT22;43708;48.828;9.166;2023-04-28T03:20:20;20.50;73.30
57892;DHT22;43708;48.828;9.166;2023-04-28T03:22:46;20.50;73.20
57892;DHT22;43708;48.828;9.166;2023-04-28T03:25:11;20.50;73.30
57892;DHT22;43708;48.828;9.166;2023-04-28T03:27:37;20.50;73.30
57892;DHT22;43708;48.828;9.166;2023-04-28T03:30:03;20.60;73.30
57892;DHT22;43708;48.828;9.166;2023-04-28T03:32:28;20.50;73.20
57892;DHT22;43708;48.828;9.166;2023-04-28T03:34:54;20.60;73.20
57892;DHT22;43708;48.828;9.166;2023-04-28T03:37:19;20.60;73.30
57892;DHT22;43708;48.828;9.166;2023-04-28T03:39:45;20.60;73.20
57892;DHT22;43708;48.828;9.166;2023-04-28T03:42:10;20.60;73.30
57892;DHT22;43708;48.828;9.166;2023-04-28T03:44:36;20.60;73.20
57892;DHT22;43708;48.828;9.166;2023-04-28T03:47:02;20.60;73.20
57892;DHT22;43708;48.828;9.166;2023-04-28T03:49:27;20.60;73.20
57892;DHT22;43708;48.828;9.166;2023-04-28T03:51:53;20.60;73.20
57892;DHT22;43708;48.828;9.166;2023-04-28T03:54:18;20.60;73.20
57892;DHT22;43708;48.828;9.166;2023-04-28T03:56:44;20.60;73.20
57892;DHT22;43708;48.828;9.166;2023-04-28T03:59:10;20.70;73.20
57892;DHT22;43708;48.828;9.166;2023-04-28T04:01:37;20.70;73.20
57892;DHT22;43708;48.828;9.166;2023-04-28T04:04:03;20.70;73.20
57892;DHT22;43708;48.828;9.166;2023-04-28T04:06:29;20.70;73.20
57892;DHT22;43708;48.828;9.166;2023-04-28T04:08:55;20.70;73.30
57892;DHT22;43708;48.828;9.166;2023-04-28T04:11:21;20.70;73.30
57892;DHT22;43708;48.828;9.166;2023-04-28T04:13:46;20.70;73.30
57892;DHT22;43708;48.828;9.166;2023-04-28T04:16:12;20.60;73.20
57892;DHT22;43708;48.828;9.166;2023-04-28T04:18:40;20.70;73.30
57892;DHT22;43708;48.828;9.166;2023-04-28T04:21:05;20.70;73.30
57892;DHT22;43708;48.828;9.166;2023-04-28T04:23:31;20.70;73.30
57892;DHT22;43708;48.828;9.166;2023-04-28T04:25:57;20.70;73.30
57892;DHT22;43708;48.828;9.166;2023-04-28T04:28:22;20.70;73.30
57892;DHT22;43708;48.828;9.166;2023-04-28T04:30:48;20.70;73.30
57892;DHT22;43708;48.828;9.166;2023-04-28T04:33:13;20.70;73.30
57892;DHT22;43708;48.828;9.166;2023-04-28T04:35:39;20.70;74.10
57892;DHT22;43708;48.828;9.166;2023-04-28T04:38:04;20.70;73.30
57892;DHT22;43708;48.828;9.166;2023-04-28T04:40:31;20.70;73.30
57892;DHT22;43708;48.828;9.166;2023-04-28T04:42:57;20.70;73.40
57892;DHT22;43708;48.828;9.166;2023-04-28T04:45:23;20.70;73.40
57892;DHT22;43708;48.828;9.166;2023-04-28T04:47:48;20.70;73.40
57892;DHT22;43708;48.828;9.166;2023-04-28T04:50:14;20.70;73.40
57892;DHT22;43708;48.828;9.166;2023-04-28T04:52:39;20.70;73.40
57892;DHT22;43708;48.828;9.166;2023-04-28T04:55:05;20.70;73.40
57892;DHT22;43708;48.828;9.166;2023-04-28T04:57:31;20.70;73.40
57892;DHT22;43708;48.828;9.166;2023-04-28T04:59:57;20.70;73.40
57892;DHT22;43708;48.828;9.166;2023-04-28T05:02:22;20.70;73.40
57892;DHT22;43708;48.828;9.166;2023-04-28T05:04:48;20.70;73.30
57892;DHT22;43708;48.828;9.166;2023-04-28T05:07:14;20.80;73.20
57892;DHT22;43708;48.828;9.166;2023-04-28T05:09:39;20.90;73.20
57892;DHT22;43708;48.828;9.166;2023-04-28T05:12:05;20.90;73.20
57892;DHT22;43708;48.828;9.166;2023-04-28T05:14:31;20.90;73.30
57892;DHT22;43708;48.828;9.166;2023-04-28T05:16:56;20.90;73.30
57892;DHT22;43708;48.828;9.166;2023-04-28T05:19:22;20.90;73.30
57892;DHT22;43708;48.828;9.166;2023-04-28T05:21:47;20.90;73.30
57892;DHT22;43708;48.828;9.166;2023-04-28T05:24:14;20.90;73.30
57892;DHT22;43708;48.828;9.166;2023-04-28T05:26:39;20.90;73.30
57892;DHT22;43708;48.828;9.166;2023-04-28T05:29:05;20.80;73.60
57892;DHT22;43708;48.828;9.166;2023-04-28T05:31:31;20.70;73.90
57892;DHT22;43708;48.828;9.166;2023-04-28T05:33:56;20.60;74.10
57892;DHT22;43708;48.828;9.166;2023-04-28T05:36:23;20.50;74.30
57892;DHT22;43708;48.828;9.166;2023-04-28T05:38:49;20.60;74.40
57892;DHT22;43708;48.828;9.166;2023-04-28T05:41:14;20.60;74.20
57892;DHT22;43708;48.828;9.166;2023-04-28T05:43:40;20.70;74.10
57892;DHT22;43708;48.828;9.166;2023-04-28T05:46:05;20.70;74.10
57892;DHT22;43708;48.828;9.166;2023-04-28T05:48:31;20.70;74.00
57892;DHT22;43708;48.828;9.166;2023-04-28T05:50:57;20.80;74.10
57892;DHT22;43708;48.828;9.166;2023-04-28T05:53:22;20.80;74.20
57892;DHT22;43708;48.828;9.166;2023-04-28T05:55:48;20.80;74.20
57892;DHT22;43708;48.828;9.166;2023-04-28T05:58:13;20.80;74.30
57892;DHT22;43708;48.828;9.166;2023-04-28T06:00:39;20.70;74.30
57892;DHT22;43708;48.828;9.166;2023-04-28T06:03:05;20.80;74.60
57892;DHT22;43708;48.828;9.166;2023-04-28T06:05:31;20.80;74.80
57892;DHT22;43708;48.828;9.166;2023-04-28T06:07:56;20.80;74.80
57892;DHT22;43708;48.828;9.166;2023-04-28T06:10:24;20.80;74.90
57892;DHT22;43708;48.828;9.166;2023-04-28T06:12:50;20.70;75.20
57892;DHT22;43708;48.828;9.166;2023-04-28T06:15:15;20.70;75.70
57892;DHT22;43708;48.828;9.166;2023-04-28T06:17:41;20.60;75.60
57892;DHT22;43708;48.828;9.166;2023-04-28T06:20:07;20.60;75.50
57892;DHT22;43708;48.828;9.166;2023-04-28T06:22:35;20.50;75.70
57892;DHT22;43708;48.828;9.166;2023-04-28T06:25:00;20.50;75.70
57892;DHT22;43708;48.828;9.166;2023-04-28T06:27:26;20.60;75.70
57892;DHT22;43708;48.828;9.166;2023-04-28T06:29:51;20.60;75.60
57892;DHT22;43708;48.828;9.166;2023-04-28T06:32:17;20.50;75.80
57892;DHT22;43708;48.828;9.166;2023-04-28T06:34:42;20.40;75.80
57892;DHT22;43708;48.828;9.166;2023-04-28T06:37:08;20.50;76.00
57892;DHT22;43708;48.828;9.166;2023-04-28T06:39:34;20.50;75.90
57892;DHT22;43708;48.828;9.166;2023-04-28T06:42:00;20.50;75.90
57892;DHT22;43708;48.828;9.166;2023-04-28T06:44:26;20.60;75.80
57892;DHT22;43708;48.828;9.166;2023-04-28T06:46:52;20.60;75.80
57892;DHT22;43708;48.828;9.166;2023-04-28T06:49:17;20.60;75.80
57892;DHT22;43708;48.828;9.166;2023-04-28T06:51:43;20.60;75.80
57892;DHT22;43708;48.828;9.166;2023-04-28T06:54:09;20.60;75.80
57892;DHT22;43708;48.828;9.166;2023-04-28T06:56:35;20.70;75.90
57892;DHT22;43708;48.828;9.166;2023-04-28T06:59:01;20.70;75.90
57892;DHT22;43708;48.828;9.166;2023-04-28T07:01:27;20.70;75.90
57892;DHT22;43708;48.828;9.166;2023-04-28T07:03:53;20.70;75.90
57892;DHT22;43708;48.828;9.166;2023-04-28T07:06:18;20.60;75.80
57892;DHT22;43708;48.828;9.166;2023-04-28T07:08:44;20.50;76.00
57892;DHT22;43708;48.828;9.166;2023-04-28T07:11:10;20.40;76.40
57892;DHT22;43708;48.828;9.166;2023-04-28T07:13:36;20.30;76.60
57892;DHT22;43708;48.828;9.166;2023-04-28T07:16:03;20.30;76.80
57892;DHT22;43708;48.828;9.166;2023-04-28T07:18:29;20.30;76.80
57892;DHT22;43708;48.828;9.166;2023-04-28T07:20:55;20.40;76.70
57892;DHT22;43708;48.828;9.166;2023-04-28T07:23:20;20.50;76.60
57892;DHT22;43708;48.828;9.166;2023-04-28T07:25:46;20.50;76.50
57892;DHT22;43708;48.828;9.166;2023-04-28T07:28:11;20.50;76.50
57892;DHT22;43708;48.828;9.166;2023-04-28T07:30:38;20.60;76.40
57892;DHT22;43708;48.828;9.166;2023-04-28T07:33:03;20.60;76.40
57892;DHT22;43708;48.828;9.166;2023-04-28T07:35:29;20.60;76.40
57892;DHT22;43708;48.828;9.166;2023-04-28T07:37:55;20.60;76.30
57892;DHT22;43708;48.828;9.166;2023-04-28T07:40:22;20.70;76.40
57892;DHT22;43708;48.828;9.166;2023-04-28T07:42:48;20.60;76.30
57892;DHT22;43708;48.828;9.166;2023-04-28T07:45:14;20.60;76.40
57892;DHT22;43708;48.828;9.166;2023-04-28T07:47:40;20.60;76.40
57892;DHT22;43708;48.828;9.166;2023-04-28T07:50:07;20.60;76.40
57892;DHT22;43708;48.828;9.166;2023-04-28T07:52:33;20.60;76.40
57892;DHT22;43708;48.828;9.166;2023-04-28T07:54:59;20.60;76.40
57892;DHT22;43708;48.828;9.166;2023-04-28T07:57:25;20.60;77.20
57892;DHT22;43708;48.828;9.166;2023-04-28T07:59:52;20.60;76.50
57892;DHT22;43708;48.828;9.166;2023-04-28T08:02:18;20.60;76.50
57892;DHT22;43708;48.828;9.166;2023-04-28T08:04:45;20.60;76.50
57892;DHT22;43708;48.828;9.166;2023-04-28T08:07:10;20.60;76.50
57892;DHT22;43708;48.828;9.166;2023-04-28T08:09:36;20.60;76.50
57892;DHT22;43708;48.828;9.166;2023-04-28T08:12:02;20.60;76.60
57892;DHT22;43708;48.828;9.166;2023-04-28T08:14:28;20.60;76.60
57892;DHT22;43708;48.828;9.166;2023-04-28T08:16:54;20.60;76.60
57892;DHT22;43708;48.828;9.166;2023-04-28T08:19:19;20.60;76.60
57892;DHT22;43708;48.828;9.166;2023-04-28T08:21:45;20.60;76.60
57892;DHT22;43708;48.828;9.166;2023-04-28T08:24:11;20.60;76.60
57892;DHT22;43708;48.828;9.166;2023-04-28T08:26:37;20.60;76.60
57892;DHT22;43708;48.828;9.166;2023-04-28T08:29:03;20.60;76.60
57892;DHT22;43708;48.828;9.166;2023-04-28T08:31:29;20.60;76.60
57892;DHT22;43708;48.828;9.166;2023-04-28T08:33:54;20.60;76.60
57892;DHT22;43708;48.828;9.166;2023-04-28T08:36:20;20.60;76.70
57892;DHT22;43708;48.828;9.166;2023-04-28T08:38:45;20.60;76.70
57892;DHT22;43708;48.828;9.166;2023-04-28T08:41:14;20.60;76.80
57892;DHT22;43708;48.828;9.166;2023-04-28T08:43:39;20.60;76.80
57892;DHT22;43708;48.828;9.166;2023-04-28T08:46:08;20.60;76.80
57892;DHT22;43708;48.828;9.166;2023-04-28T08:48:41;20.60;76.90
57892;DHT22;43708;48.828;9.166;2023-04-28T08:51:08;20.60;76.90
57892;DHT22;43708;48.828;9.166;2023-04-28T08:53:36;20.60;76.90
57892;DHT22;43708;48.828;9.166;2023-04-28T08:56:04;20.50;76.80
57892;DHT22;43708;48.828;9.166;2023-04-28T08:58:30;20.60;76.90
57892;DHT22;43708;48.828;9.166;2023-04-28T09:00:56;20.60;76.90
57892;DHT22;43708;48.828;9.166;2023-04-28T09:03:22;20.60;76.90
57892;DHT22;43708;48.828;9.166;2023-04-28T09:05:48;20.60;76.80
57892;DHT22;43708;48.828;9.166;2023-04-28T09:08:13;20.60;76.90
57892;DHT22;43708;48.828;9.166;2023-04-28T09:10:39;20.60;76.80
57892;DHT22;43708;48.828;9.166;2023-04-28T09:13:05;20.60;76.90
57892;DHT22;43708;48.828;9.166;2023-04-28T09:15:38;20.60;76.90
57892;DHT22;43708;48.828;9.166;2023-04-28T09:18:07;20.60;76.90
57892;DHT22;43708;48.828;9.166;2023-04-28T09:20:34;20.60;77.00
57892;DHT22;43708;48.828;9.166;2023-04-28T09:23:20;20.60;76.90
57892;DHT22;43708;48.828;9.166;2023-04-28T09:28:22;20.60;76.90
57892;DHT22;43708;48.828;9.166;2023-04-28T09:30:47;20.60;76.90
57892;DHT22;43708;48.828;9.166;2023-04-28T09:33:13;20.60;77.00
57892;DHT22;43708;48.828;9.166;2023-04-28T09:35:41;20.60;76.90
57892;DHT22;43708;48.828;9.166;2023-04-28T09:38:07;20.60;77.00
57892;DHT22;43708;48.828;9.166;2023-04-28T09:40:32;20.60;76.90
57892;DHT22;43708;48.828;9.166;2023-04-28T09:43:25;20.60;76.90
57892;DHT22;43708;48.828;9.166;2023-04-28T09:45:51;20.60;76.90
57892;DHT22;43708;48.828;9.166;2023-04-28T09:48:17;20.60;76.90
57892;DHT22;43708;48.828;9.166;2023-04-28T09:50:52;20.60;76.80
57892;DHT22;43708;48.828;9.166;2023-04-28T09:53:24;20.60;76.80
57892;DHT22;43708;48.828;9.166;2023-04-28T09:55:52;20.60;76.80
57892;DHT22;43708;48.828;9.166;2023-04-28T09:58:22;20.70;76.90
57892;DHT22;43708;48.828;9.166;2023-04-28T10:00:58;20.60;76.80
57892;DHT22;43708;48.828;9.166;2023-04-28T10:03:28;20.70;76.90
57892;DHT22;43708;48.828;9.166;2023-04-28T10:05:56;20.60;76.80
57892;DHT22;43708;48.828;9.166;2023-04-28T10:08:24;20.60;76.90
57892;DHT22;43708;48.828;9.166;2023-04-28T10:10:51;20.60;76.90
57892;DHT22;43708;48.828;9.166;2023-04-28T10:13:20;20.60;77.00
57892;DHT22;43708;48.828;9.166;2023-04-28T10:15:46;20.60;77.00
57892;DHT22;43708;48.828;9.166;2023-04-28T10:18:13;20.60;77.00
57892;DHT22;43708;48.828;9.166;2023-04-28T10:20:43;20.60;77.10
57892;DHT22;43708;48.828;9.166;2023-04-28T10:26:03;20.60;77.20
57892;DHT22;43708;48.828;9.166;2023-04-28T10:28:34;20.60;77.20
57892;DHT22;43708;48.828;9.166;2023-04-28T10:31:16;20.60;77.20
57892;DHT22;43708;48.828;9.166;2023-04-28T10:33:42;20.60;77.20
57892;DHT22;43708;48.828;9.166;2023-04-28T10:36:08;20.50;77.20
57892;DHT22;43708;48.828;9.166;2023-04-28T10:38:35;20.50;77.20
57892;DHT22;43708;48.828;9.166;2023-04-28T10:41:01;20.50;77.20
57892;DHT22;43708;48.828;9.166;2023-04-28T10:43:37;20.60;77.30
57892;DHT22;43708;48.828;9.166;2023-04-28T10:46:08;20.60;77.30
57892;DHT22;43708;48.828;9.166;2023-04-28T10:58:47;20.30;79.50
57892;DHT22;43708;48.828;9.166;2023-04-28T11:01:26;20.30;79.70
57892;DHT22;43708;48.828;9.166;2023-04-28T11:03:58;20.30;79.50
57892;DHT22;43708;48.828;9.166;2023-04-28T11:06:32;20.30;79.10
57892;DHT22;43708;48.828;9.166;2023-04-28T11:19:21;20.50;78.60
57892;DHT22;43708;48.828;9.166;2023-04-28T11:21:49;20.50;78.60
57892;DHT22;43708;48.828;9.166;2023-04-28T11:24:15;20.50;78.60
57892;DHT22;43708;48.828;9.166;2023-04-28T11:26:42;20.50;78.70
57892;DHT22;43708;48.828;9.166;2023-04-28T11:29:09;20.50;78.80
57892;DHT22;43708;48.828;9.166;2023-04-28T11:31:36;20.50;78.80
57892;DHT22;43708;48.828;9.166;2023-04-28T11:34:11;20.50;78.90
57892;DHT22;43708;48.828;9.166;2023-04-28T11:36:39;20.50;79.00
57892;DHT22;43708;48.828;9.166;2023-04-28T11:39:06;20.50;79.00
57892;DHT22;43708;48.828;9.166;2023-04-28T11:41:40;20.50;79.10
57892;DHT22;43708;48.828;9.166;2023-04-28T11:44:11;20.50;79.20
57892;DHT22;43708;48.828;9.166;2023-04-28T11:46:44;20.50;79.30
57892;DHT22;43708;48.828;9.166;2023-04-28T11:49:10;20.50;79.40
57892;DHT22;43708;48.828;9.166;2023-04-28T11:51:37;20.50;79.50
57892;DHT22;43708;48.828;9.166;2023-04-28T11:54:06;20.50;79.60
57892;DHT22;43708;48.828;9.166;2023-04-28T11:56:38;20.50;79.60
57892;DHT22;43708;48.828;9.166;2023-04-28T11:59:06;20.50;79.60
57892;DHT22;43708;48.828;9.166;2023-04-28T12:01:34;20.50;79.50
57892;DHT22;43708;48.828;9.166;2023-04-28T12:04:01;20.50;79.50
57892;DHT22;43708;48.828;9.166;2023-04-28T12:06:27;20.50;79.50
57892;DHT22;43708;48.828;9.166;2023-04-28T12:08:54;20.50;79.80
57892;DHT22;43708;48.828;9.166;2023-04-28T12:11:19;20.60;79.70
57892;DHT22;43708;48.828;9.166;2023-04-28T12:14:02;20.60;79.70
57892;DHT22;43708;48.828;9.166;2023-04-28T12:16:42;20.60;79.60
57892;DHT22;43708;48.828;9.166;2023-04-28T12:19:10;20.50;79.70
57892;DHT22;43708;48.828;9.166;2023-04-28T12:21:37;20.40;79.80
57892;DHT22;43708;48.828;9.166;2023-04-28T12:24:19;20.40;79.90
57892;DHT22;43708;48.828;9.166;2023-04-28T12:26:46;20.50;80.10
57892;DHT22;43708;48.828;9.166;2023-04-28T12:29:35;20.50;80.30
57892;DHT22;43708;48.828;9.166;2023-04-28T12:32:02;20.60;80.50
57892;DHT22;43708;48.828;9.166;2023-04-28T12:34:28;20.60;80.60
57892;DHT22;43708;48.828;9.166;2023-04-28T12:36:55;20.60;80.90
57892;DHT22;43708;48.828;9.166;2023-04-28T12:39:21;20.60;81.00
57892;DHT22;43708;48.828;9.166;2023-04-28T12:41:47;20.60;81.00
57892;DHT22;43708;48.828;9.166;2023-04-28T12:44:13;20.50;81.10
57892;DHT22;43708;48.828;9.166;2023-04-28T12:46:40;20.50;81.30
57892;DHT22;43708;48.828;9.166;2023-04-28T12:49:06;20.50;81.20
57892;DHT22;43708;48.828;9.166;2023-04-28T12:51:32;20.50;81.30
57892;DHT22;43708;48.828;9.166;2023-04-28T12:54:02;20.50;81.30
57892;DHT22;43708;48.828;9.166;2023-04-28T12:56:28;20.50;81.40
57892;DHT22;43708;48.828;9.166;2023-04-28T12:58:53;20.60;81.50
57892;DHT22;43708;48.828;9.166;2023-04-28T13:01:19;20.50;81.40
57892;DHT22;43708;48.828;9.166;2023-04-28T13:03:44;20.50;81.90
57892;DHT22;43708;48.828;9.166;2023-04-28T13:06:11;20.50;81.50
57892;DHT22;43708;48.828;9.166;2023-04-28T13:08:37;20.50;81.60
57892;DHT22;43708;48.828;9.166;2023-04-28T13:11:04;20.50;82.30
57892;DHT22;43708;48.828;9.166;2023-04-28T13:13:30;20.50;81.60
57892;DHT22;43708;48.828;9.166;2023-04-28T13:15:55;20.50;81.60
57892;DHT22;43708;48.828;9.166;2023-04-28T13:18:22;20.50;81.70
57892;DHT22;43708;48.828;9.166;2023-04-28T13:20:48;20.50;81.70
57892;DHT22;43708;48.828;9.166;2023-04-28T13:23:14;20.50;81.70
57892;DHT22;43708;48.828;9.166;2023-04-28T13:25:40;20.50;81.70
57892;DHT22;43708;48.828;9.166;2023-04-28T13:28:05;20.50;81.70
57892;DHT22;43708;48.828;9.166;2023-04-28T13:30:31;20.50;82.50
57892;DHT22;43708;48.828;9.166;2023-04-28T13:32:57;20.50;81.80
57892;DHT22;43708;48.828;9.166;2023-04-28T13:35:23;20.50;81.80
57892;DHT22;43708;48.828;9.166;2023-04-28T13:37:49;20.50;81.80
57892;DHT22;43708;48.828;9.166;2023-04-28T13:40:14;20.50;81.80
57892;DHT22;43708;48.828;9.166;2023-04-28T13:42:40;20.50;81.70
57892;DHT22;43708;48.828;9.166;2023-04-28T13:45:06;20.60;81.70
57892;DHT22;43708;48.828;9.166;2023-04-28T13:47:32;20.60;81.70
57892;DHT22;43708;48.828;9.166;2023-04-28T13:49:58;20.60;81.70
57892;DHT22;43708;48.828;9.166;2023-04-28T13:52:25;20.60;81.60
57892;DHT22;43708;48.828;9.166;2023-04-28T13:54:50;20.60;81.60
57892;DHT22;43708;48.828;9.166;2023-04-28T13:57:16;20.60;81.60
57892;DHT22;43708;48.828;9.166;2023-04-28T13:59:42;20.60;81.70
57892;DHT22;43708;48.828;9.166;2023-04-28T14:02:08;20.60;81.60
57892;DHT22;43708;48.828;9.166;2023-04-28T14:04:35;20.60;81.60
57892;DHT22;43708;48.828;9.166;2023-04-28T14:07:01;20.60;81.60
57892;DHT22;43708;48.828;9.166;2023-04-28T14:09:27;20.60;81.60
57892;DHT22;43708;48.828;9.166;2023-04-28T14:11:52;20.60;81.60
57892;DHT22;43708;48.828;9.166;2023-04-28T14:14:21;20.60;81.50
57892;DHT22;43708;48.828;9.166;2023-04-28T14:16:47;20.60;81.60
57892;DHT22;43708;48.828;9.166;2023-04-28T14:19:13;20.70;81.60
57892;DHT22;43708;48.828;9.166;2023-04-28T14:21:42;20.70;81.50
57892;DHT22;43708;48.828;9.166;2023-04-28T14:24:07;20.70;81.50
57892;DHT22;43708;48.828;9.166;2023-04-28T14:26:34;20.70;81.50
57892;DHT22;43708;48.828;9.166;2023-04-28T14:29:01;20.70;81.60
57892;DHT22;43708;48.828;9.166;2023-04-28T14:31:26;20.70;81.60
57892;DHT22;43708;48.828;9.166;2023-04-28T14:33:52;20.70;81.60
57892;DHT22;43708;48.828;9.166;2023-04-28T14:36:18;20.60;81.50
57892;DHT22;43708;48.828;9.166;2023-04-28T14:38:44;20.70;81.60
57892;DHT22;43708;48.828;9.166;2023-04-28T14:41:10;20.60;81.60
57892;DHT22;43708;48.828;9.166;2023-04-28T14:43:36;20.60;81.60
57892;DHT22;43708;48.828;9.166;2023-04-28T14:46:02;20.60;81.60
57892;DHT22;43708;48.828;9.166;2023-04-28T14:48:30;20.60;81.60
57892;DHT22;43708;48.828;9.166;2023-04-28T14:50:56;20.60;81.60
57892;DHT22;43708;48.828;9.166;2023-04-28T14:53:22;20.60;81.60
57892;DHT22;43708;48.828;9.166;2023-04-28T14:55:49;20.60;81.60
57892;DHT22;43708;48.828;9.166;2023-04-28T14:58:14;20.60;81.60
57892;DHT22;43708;48.828;9.166;2023-04-28T15:00:40;20.60;81.60
57892;DHT22;43708;48.828;9.166;2023-04-28T15:03:06;20.60;81.50
57892;DHT22;43708;48.828;9.166;2023-04-28T15:05:32;20.60;81.60
57892;DHT22;43708;48.828;9.166;2023-04-28T15:07:58;20.60;81.60
57892;DHT22;43708;48.828;9.166;2023-04-28T15:10:23;20.60;81.60
57892;DHT22;43708;48.828;9.166;2023-04-28T15:12:49;20.60;81.60
57892;DHT22;43708;48.828;9.166;2023-04-28T15:15:15;20.60;81.60
57892;DHT22;43708;48.828;9.166;2023-04-28T15:17:40;20.60;81.80
57892;DHT22;43708;48.828;9.166;2023-04-28T15:20:06;20.50;82.10
57892;DHT22;43708;48.828;9.166;2023-04-28T15:22:32;20.40;82.00
57892;DHT22;43708;48.828;9.166;2023-04-28T15:24:58;20.50;82.00
57892;DHT22;43708;48.828;9.166;2023-04-28T15:27:24;20.50;81.90
57892;DHT22;43708;48.828;9.166;2023-04-28T15:29:50;20.50;82.00
57892;DHT22;43708;48.828;9.166;2023-04-28T15:32:15;20.50;81.80
57892;DHT22;43708;48.828;9.166;2023-04-28T15:34:41;20.50;81.80
57892;DHT22;43708;48.828;9.166;2023-04-28T15:40:01;20.60;82.60
57892;DHT22;43708;48.828;9.166;2023-04-28T15:42:27;20.60;81.90
57892;DHT22;43708;48.828;9.166;2023-04-28T15:44:53;20.60;81.90
57892;DHT22;43708;48.828;9.166;2023-04-28T15:47:18;20.60;81.90
57892;DHT22;43708;48.828;9.166;2023-04-28T15:49:44;20.60;81.90
57892;DHT22;43708;48.828;9.166;2023-04-28T15:52:10;20.60;82.00
57892;DHT22;43708;48.828;9.166;2023-04-28T15:54:37;20.60;82.00